createdAt,value
2018-10-06T00:00:30.417Z,99.60
2018-10-06T00:02:58.939Z,99.28
2018-10-06T00:05:27.429Z,99.36
2018-10-06T00:07:55.968Z,99.04
2018-10-06T00:10:24.489Z,99.18
2018-10-06T00:12:53.020Z,99.09
2018-10-06T00:15:21.526Z,99.38
2018-10-06T00:17:50.060Z,99.29
2018-10-06T00:20:18.570Z,99.18
2018-10-06T00:22:47.080Z,98.88
2018-10-06T00:25:15.575Z,98.97
2018-10-06T00:27:44.096Z,99.49
2018-10-06T00:30:12.634Z,100.00
2018-10-06T00:32:41.152Z,100.00
2018-10-06T00:35:09.667Z,100.00
2018-10-06T00:37:38.215Z,100.00
2018-10-06T00:40:06.747Z,100.00
2018-10-06T00:42:35.260Z,100.00
2018-10-06T00:45:03.785Z,100.00
2018-10-06T00:47:32.321Z,99.76
2018-10-06T00:50:00.826Z,99.51
2018-10-06T00:52:29.319Z,99.46
2018-10-06T00:54:57.836Z,99.55
2018-10-06T00:57:26.327Z,99.62
2018-10-06T00:59:54.862Z,99.76
2018-10-06T01:02:23.341Z,99.52
2018-10-06T01:04:51.857Z,99.35
2018-10-06T01:07:20.351Z,99.48
2018-10-06T01:09:48.873Z,99.22
2018-10-06T01:12:17.379Z,98.87
2018-10-06T01:14:45.902Z,99.20
2018-10-06T01:17:14.395Z,99.86
2018-10-06T01:19:42.999Z,100.00
2018-10-06T01:22:11.493Z,100.00
2018-10-06T01:24:39.999Z,99.85
2018-10-06T01:27:09.326Z,99.61
2018-10-06T01:29:37.841Z,99.45
2018-10-06T01:32:06.425Z,99.48
2018-10-06T01:34:35.251Z,99.72
2018-10-06T01:37:03.750Z,99.77
2018-10-06T01:39:32.562Z,99.66
2018-10-06T01:42:01.558Z,99.57
2018-10-06T01:44:30.093Z,99.70
2018-10-06T01:46:58.610Z,100.00
2018-10-06T01:49:27.141Z,100.00
2018-10-06T01:51:55.645Z,99.92
2018-10-06T01:54:24.159Z,99.48
2018-10-06T01:56:52.649Z,98.98
2018-10-06T01:59:21.181Z,99.16
2018-10-06T02:01:49.735Z,99.44
2018-10-06T02:04:22.218Z,99.94
2018-10-06T02:06:50.709Z,100.00
2018-10-06T02:09:19.242Z,100.00
2018-10-06T02:11:47.779Z,100.00
2018-10-06T02:14:16.321Z,100.00
2018-10-06T02:16:44.936Z,100.00
2018-10-06T02:19:13.451Z,100.00
2018-10-06T02:21:41.981Z,99.98
2018-10-06T02:24:10.509Z,99.81
2018-10-06T02:26:38.993Z,99.73
2018-10-06T02:29:07.517Z,99.74
2018-10-06T02:31:36.039Z,100.00
2018-10-06T02:34:04.642Z,100.00
2018-10-06T02:36:33.155Z,100.00
2018-10-06T02:39:01.693Z,100.00
2018-10-06T02:41:30.198Z,100.00
2018-10-06T02:43:58.718Z,100.00
2018-10-06T02:46:27.235Z,100.00
2018-10-06T02:48:55.789Z,100.00
2018-10-06T02:51:24.311Z,100.00
2018-10-06T02:53:52.917Z,100.00
2018-10-06T02:56:21.487Z,100.00
2018-10-06T02:58:49.990Z,100.00
2018-10-06T03:01:18.529Z,100.00
2018-10-06T03:03:47.024Z,100.00
2018-10-06T03:06:15.554Z,100.00
2018-10-06T03:08:44.054Z,100.00
2018-10-06T03:11:12.576Z,100.00
2018-10-06T03:13:41.103Z,100.00
2018-10-06T03:16:09.934Z,100.00
2018-10-06T03:18:38.429Z,100.00
2018-10-06T03:21:07.043Z,100.00
2018-10-06T03:23:35.551Z,100.00
2018-10-06T03:26:04.074Z,100.00
2018-10-06T03:28:32.592Z,100.00
2018-10-06T03:31:01.134Z,100.00
2018-10-06T03:33:29.678Z,100.00
2018-10-06T03:35:58.214Z,100.00
2018-10-06T03:38:26.714Z,100.00
2018-10-06T03:40:55.248Z,100.00
2018-10-06T03:43:23.735Z,100.00
2018-10-06T03:45:52.271Z,100.00
2018-10-06T03:48:20.773Z,100.00
2018-10-06T03:50:49.311Z,100.00
2018-10-06T03:53:17.804Z,100.00
2018-10-06T03:55:46.334Z,100.00
2018-10-06T03:58:14.871Z,100.00
2018-10-06T04:00:43.389Z,100.00
2018-10-06T04:03:11.909Z,100.00
2018-10-06T04:05:40.462Z,100.00
2018-10-06T04:08:09.058Z,100.00
2018-10-06T04:10:37.577Z,100.00
2018-10-06T04:13:06.330Z,100.00
2018-10-06T04:15:34.845Z,99.86
2018-10-06T04:18:03.351Z,99.51
2018-10-06T04:20:31.879Z,99.76
2018-10-06T04:23:00.389Z,100.00
2018-10-06T04:25:28.985Z,100.00
2018-10-06T04:27:57.535Z,100.00
2018-10-06T04:30:26.066Z,100.00
2018-10-06T04:32:54.556Z,100.00
2018-10-06T04:35:23.108Z,99.92
2018-10-06T04:37:51.601Z,99.79
2018-10-06T04:40:20.106Z,99.85
2018-10-06T04:42:48.611Z,100.00
2018-10-06T04:45:17.130Z,100.00
2018-10-06T04:47:45.630Z,100.00
2018-10-06T04:50:14.168Z,100.00
2018-10-06T04:52:42.675Z,100.00
2018-10-06T04:55:11.226Z,100.00
2018-10-06T04:57:39.748Z,100.00
2018-10-06T05:00:08.258Z,100.00
2018-10-06T05:02:36.777Z,100.00
2018-10-06T05:05:05.289Z,100.00
2018-10-06T05:07:33.820Z,100.00
2018-10-06T05:10:02.322Z,100.00
2018-10-06T05:12:30.851Z,99.60
2018-10-06T05:14:59.355Z,99.55
2018-10-06T05:17:28.107Z,99.29
2018-10-06T05:19:56.630Z,99.31
2018-10-06T05:22:25.164Z,99.63
2018-10-06T05:24:53.657Z,99.93
2018-10-06T05:27:22.182Z,99.77
2018-10-06T05:29:50.681Z,99.97
2018-10-06T05:32:19.205Z,100.00
2018-10-06T05:34:47.733Z,100.00
2018-10-06T05:37:16.268Z,100.00
2018-10-06T05:39:44.768Z,99.51
2018-10-06T05:42:13.293Z,99.09
2018-10-06T05:44:41.782Z,99.29
2018-10-06T05:47:10.315Z,99.24
2018-10-06T05:49:38.813Z,99.49
2018-10-06T05:52:07.341Z,99.48
2018-10-06T05:54:35.854Z,99.78
2018-10-06T05:57:04.381Z,100.00
2018-10-06T05:59:32.897Z,100.00
2018-10-06T06:02:01.440Z,100.00
2018-10-06T06:04:29.947Z,100.00
2018-10-06T06:06:58.511Z,100.00
2018-10-06T06:09:27.022Z,100.00
2018-10-06T06:11:55.566Z,100.00
2018-10-06T06:14:24.065Z,99.00
2018-10-06T06:16:52.591Z,98.31
2018-10-06T06:19:21.088Z,97.79
2018-10-06T06:21:49.609Z,97.71
2018-10-06T06:24:18.106Z,97.88
2018-10-06T06:26:46.625Z,97.91
2018-10-06T06:29:15.135Z,98.25
2018-10-06T06:31:43.648Z,99.43
2018-10-06T06:34:12.171Z,99.98
2018-10-06T06:36:40.687Z,100.00
2018-10-06T06:39:09.833Z,100.00
2018-10-06T06:41:38.773Z,97.52
2018-10-06T06:44:07.574Z,96.67
2018-10-06T06:46:36.177Z,96.96
2018-10-06T06:49:04.880Z,98.81
2018-10-06T06:51:33.421Z,99.56
2018-10-06T06:54:01.901Z,99.01
2018-10-06T06:56:30.446Z,97.48
2018-10-06T06:58:58.973Z,98.11
2018-10-06T07:01:27.465Z,98.13
2018-10-06T07:03:55.978Z,96.85
2018-10-06T07:06:24.478Z,97.30
2018-10-06T07:08:52.990Z,97.44
2018-10-06T07:11:21.516Z,97.02
2018-10-06T07:13:50.048Z,96.33
2018-10-06T07:16:18.580Z,96.23
2018-10-06T07:18:47.114Z,95.57
2018-10-06T07:21:15.632Z,94.16
2018-10-06T07:23:44.161Z,94.06
2018-10-06T07:26:12.666Z,93.81
2018-10-06T07:28:41.273Z,93.46
2018-10-06T07:31:09.767Z,93.09
2018-10-06T07:33:38.329Z,92.16
2018-10-06T07:36:07.145Z,91.73
2018-10-06T07:38:35.674Z,91.61
2018-10-06T07:41:04.181Z,90.48
2018-10-06T07:43:32.742Z,89.53
2018-10-06T07:46:01.347Z,89.87
2018-10-06T07:48:29.879Z,88.83
2018-10-06T07:50:58.384Z,88.68
2018-10-06T07:53:26.909Z,88.21
2018-10-06T07:55:55.415Z,87.28
2018-10-06T07:58:23.983Z,86.08
2018-10-06T08:00:52.504Z,85.00
2018-10-06T08:03:21.039Z,85.11
2018-10-06T08:05:49.542Z,84.71
2018-10-06T08:08:18.083Z,83.01
2018-10-06T08:10:46.588Z,84.16
2018-10-06T08:13:15.120Z,82.75
2018-10-06T08:15:43.643Z,82.84
2018-10-06T08:18:12.197Z,81.79
2018-10-06T08:20:40.706Z,82.46
2018-10-06T08:23:09.277Z,81.77
2018-10-06T08:25:37.784Z,81.42
2018-10-06T08:28:06.302Z,81.07
2018-10-06T08:30:34.830Z,80.51
2018-10-06T08:33:03.390Z,80.84
2018-10-06T08:35:31.918Z,79.80
2018-10-06T08:38:00.675Z,80.04
2018-10-06T08:40:29.567Z,78.69
2018-10-06T08:42:58.201Z,79.66
2018-10-06T08:45:26.937Z,78.33
2018-10-06T08:47:55.564Z,78.83
2018-10-06T08:50:24.199Z,78.52
2018-10-06T08:52:52.898Z,78.36
2018-10-06T08:55:21.450Z,76.19
2018-10-06T08:57:49.980Z,77.12
2018-10-06T09:00:25.243Z,77.58
2018-10-06T09:02:53.811Z,76.50
2018-10-06T09:05:22.368Z,76.83
2018-10-06T09:07:50.901Z,75.79
2018-10-06T09:10:19.453Z,76.07
2018-10-06T09:12:47.953Z,74.76
2018-10-06T09:15:16.481Z,74.22
2018-10-06T09:17:45.014Z,74.10
2018-10-06T09:20:13.541Z,73.58
2018-10-06T09:22:42.037Z,74.47
2018-10-06T09:25:10.590Z,74.15
2018-10-06T09:27:39.085Z,73.19
2018-10-06T09:30:07.684Z,73.47
2018-10-06T09:32:36.299Z,74.27
2018-10-06T09:35:04.862Z,73.07
2018-10-06T09:37:33.390Z,73.18
2018-10-06T09:40:01.923Z,73.08
2018-10-06T09:42:30.493Z,71.99
2018-10-06T09:44:59.015Z,72.48
2018-10-06T09:47:27.533Z,70.79
2018-10-06T09:49:56.109Z,69.15
2018-10-06T09:52:24.609Z,69.52
2018-10-06T09:54:53.127Z,69.76
2018-10-06T09:57:21.648Z,70.51
2018-10-06T09:59:50.179Z,70.20
2018-10-06T10:02:23.982Z,70.46
2018-10-06T10:04:52.560Z,70.72
2018-10-06T10:07:21.068Z,69.45
2018-10-06T10:09:49.650Z,68.25
2018-10-06T10:12:18.128Z,68.73
2018-10-06T10:14:46.668Z,69.02
2018-10-06T10:17:15.291Z,68.18
2018-10-06T10:19:43.816Z,67.81
2018-10-06T10:22:12.435Z,68.48
2018-10-06T10:24:40.890Z,67.82
2018-10-06T10:27:09.405Z,67.85
2018-10-06T10:29:37.947Z,67.81
2018-10-06T10:32:06.468Z,67.15
2018-10-06T10:34:35.100Z,66.85
2018-10-06T10:37:03.569Z,67.27
2018-10-06T10:39:32.184Z,68.20
2018-10-06T10:42:00.643Z,66.76
2018-10-06T10:44:29.248Z,66.22
2018-10-06T10:46:57.759Z,65.83
2018-10-06T10:49:26.356Z,66.85
2018-10-06T10:51:54.844Z,68.32
2018-10-06T10:54:23.412Z,66.21
2018-10-06T10:56:51.916Z,66.52
2018-10-06T10:59:20.508Z,66.09
2018-10-06T11:01:49.025Z,67.52
2018-10-06T11:04:17.565Z,66.78
2018-10-06T11:06:46.077Z,66.40
2018-10-06T11:09:14.586Z,65.66
2018-10-06T11:11:43.137Z,65.82
2018-10-06T11:14:11.668Z,64.99
2018-10-06T11:16:40.198Z,65.34
2018-10-06T11:19:08.705Z,65.44
2018-10-06T11:21:37.232Z,65.11
2018-10-06T11:24:05.772Z,64.36
2018-10-06T11:26:34.322Z,65.20
2018-10-06T11:29:02.825Z,65.90
2018-10-06T11:31:31.355Z,66.96
2018-10-06T11:33:59.892Z,65.80
2018-10-06T11:36:28.434Z,65.46
2018-10-06T11:38:57.002Z,64.95
2018-10-06T11:41:25.541Z,65.31
2018-10-06T11:43:54.171Z,65.40
2018-10-06T11:46:22.714Z,64.10
2018-10-06T11:48:51.227Z,62.46
2018-10-06T11:51:19.766Z,64.54
2018-10-06T11:53:48.306Z,64.47
2018-10-06T11:56:16.837Z,63.44
2018-10-06T11:58:45.368Z,62.25
2018-10-06T12:01:13.949Z,61.76
2018-10-06T12:03:42.461Z,62.34
2018-10-06T12:06:11.503Z,62.63
2018-10-06T12:08:40.057Z,60.38
2018-10-06T12:11:08.618Z,60.78
2018-10-06T12:13:37.135Z,61.96
2018-10-06T12:16:05.674Z,60.12
2018-10-06T12:18:34.177Z,62.67
2018-10-06T12:21:02.710Z,60.92
2018-10-06T12:23:31.213Z,61.92
2018-10-06T12:25:59.875Z,61.15
2018-10-06T12:28:28.365Z,61.44
2018-10-06T12:30:56.870Z,59.64
2018-10-06T12:33:25.418Z,59.84
2018-10-06T12:35:53.947Z,61.10
2018-10-06T12:38:22.486Z,60.90
2018-10-06T12:40:50.985Z,60.97
2018-10-06T12:43:19.519Z,60.70
2018-10-06T12:45:48.047Z,59.67
2018-10-06T12:48:16.575Z,60.74
2018-10-06T12:50:45.099Z,60.77
2018-10-06T12:53:13.679Z,61.66
2018-10-06T12:55:42.195Z,59.39
2018-10-06T12:58:10.737Z,61.10
2018-10-06T13:00:39.281Z,59.57
2018-10-06T13:03:07.805Z,61.58
2018-10-06T13:05:36.337Z,61.35
2018-10-06T13:08:04.869Z,60.12
2018-10-06T13:10:33.365Z,62.17
2018-10-06T13:13:01.899Z,61.59
2018-10-06T13:15:30.409Z,60.48
2018-10-06T13:18:01.893Z,60.90
2018-10-06T13:20:30.400Z,60.47
2018-10-06T13:22:58.949Z,59.14
2018-10-06T13:25:27.451Z,59.54
2018-10-06T13:27:55.981Z,60.79
2018-10-06T13:30:24.498Z,60.11
2018-10-06T13:32:53.145Z,59.80
2018-10-06T13:35:21.677Z,59.58
2018-10-06T13:37:50.304Z,60.02
2018-10-06T13:40:18.818Z,60.08
2018-10-06T13:42:47.349Z,60.11
2018-10-06T13:45:15.849Z,59.11
2018-10-06T13:47:44.369Z,57.77
2018-10-06T13:50:12.866Z,59.35
2018-10-06T13:52:41.384Z,60.91
2018-10-06T13:55:10.029Z,59.38
2018-10-06T13:57:38.594Z,59.10
2018-10-06T14:00:07.211Z,59.35
2018-10-06T14:02:35.738Z,59.64
2018-10-06T14:05:04.279Z,59.71
2018-10-06T14:07:33.042Z,59.69
2018-10-06T14:10:01.542Z,59.57
2018-10-06T14:12:30.056Z,59.68
2018-10-06T14:14:58.581Z,60.11
2018-10-06T14:17:27.108Z,60.23
2018-10-06T14:19:55.658Z,60.67
2018-10-06T14:24:51.938Z,60.12
2018-10-06T14:27:20.447Z,60.02
2018-10-06T14:29:48.975Z,61.27
2018-10-06T14:32:17.485Z,60.82
2018-10-06T14:34:46.037Z,61.72
2018-10-06T14:37:14.541Z,61.31
2018-10-06T14:39:43.083Z,60.89
2018-10-06T14:42:11.598Z,61.62
2018-10-06T14:44:40.142Z,60.68
2018-10-06T14:47:08.713Z,60.58
2018-10-06T14:49:37.210Z,60.34
2018-10-06T14:52:05.723Z,60.85
2018-10-06T14:54:34.242Z,60.35
2018-10-06T14:57:02.785Z,59.89
2018-10-06T14:59:31.333Z,60.79
2018-10-06T15:01:59.878Z,61.46
2018-10-06T15:04:28.407Z,61.77
2018-10-06T15:06:56.921Z,61.78
2018-10-06T15:09:25.463Z,62.90
2018-10-06T15:11:53.986Z,63.29
2018-10-06T15:14:22.507Z,63.36
2018-10-06T15:16:51.014Z,63.52
2018-10-06T15:19:19.564Z,63.89
2018-10-06T15:21:48.074Z,64.06
2018-10-06T15:24:16.618Z,63.70
2018-10-06T15:26:45.128Z,63.63
2018-10-06T15:29:13.644Z,63.73
2018-10-06T15:31:42.188Z,63.83
2018-10-06T15:34:10.708Z,64.25
2018-10-06T15:36:39.304Z,64.88
2018-10-06T15:39:08.776Z,65.83
2018-10-06T15:41:37.609Z,67.00
2018-10-06T15:44:06.159Z,67.46
2018-10-06T15:46:34.692Z,68.01
2018-10-06T15:49:03.226Z,69.54
2018-10-06T15:51:31.759Z,70.49
2018-10-06T15:54:00.337Z,70.77
2018-10-06T15:56:28.959Z,74.00
2018-10-06T15:58:57.457Z,75.94
2018-10-06T16:01:25.994Z,76.76
2018-10-06T16:03:54.493Z,77.23
2018-10-06T16:06:23.017Z,78.31
2018-10-06T16:08:51.634Z,78.36
2018-10-06T16:11:20.162Z,78.59
2018-10-06T16:13:48.657Z,80.34
2018-10-06T16:16:17.178Z,80.40
2018-10-06T16:18:45.688Z,82.40
2018-10-06T16:21:14.208Z,83.07
2018-10-06T16:23:42.734Z,83.38
2018-10-06T16:26:11.520Z,84.18
2018-10-06T16:28:40.063Z,85.00
2018-10-06T16:31:08.589Z,85.23
2018-10-06T16:33:37.215Z,85.73
2018-10-06T16:36:05.690Z,86.48
2018-10-06T16:38:34.531Z,86.86
2018-10-06T16:41:03.025Z,86.84
2018-10-06T16:43:31.549Z,87.03
2018-10-06T16:46:00.044Z,87.39
2018-10-06T16:48:28.571Z,87.58
2018-10-06T16:50:57.059Z,87.74
2018-10-06T16:53:25.586Z,88.08
2018-10-06T16:55:54.093Z,88.24
2018-10-06T16:58:22.633Z,88.76
2018-10-06T17:00:51.144Z,89.63
2018-10-06T17:03:19.665Z,90.55
2018-10-06T17:05:48.185Z,91.21
2018-10-06T17:08:16.700Z,91.76
2018-10-06T17:10:45.200Z,91.92
2018-10-06T17:13:13.727Z,91.79
2018-10-06T17:15:42.234Z,92.13
2018-10-06T17:18:10.755Z,91.97
2018-10-06T17:20:39.246Z,92.21
2018-10-06T17:23:07.775Z,92.29
2018-10-06T17:25:36.286Z,92.42
2018-10-06T17:28:04.842Z,92.60
2018-10-06T17:30:33.347Z,92.69
2018-10-06T17:33:01.841Z,93.15
2018-10-06T17:35:30.570Z,93.43
2018-10-06T17:37:59.070Z,94.33
2018-10-06T17:40:27.616Z,94.31
2018-10-06T17:42:56.149Z,94.46
2018-10-06T17:45:24.671Z,94.46
2018-10-06T17:47:53.180Z,94.49
2018-10-06T17:50:21.834Z,94.42
2018-10-06T17:52:50.359Z,94.45
2018-10-06T17:55:18.873Z,94.68
2018-10-06T17:57:47.383Z,94.90
2018-10-06T18:00:15.918Z,95.27
2018-10-06T18:02:44.415Z,96.53
2018-10-06T18:05:12.939Z,97.50
2018-10-06T18:07:41.430Z,97.62
2018-10-06T18:10:09.962Z,97.90
2018-10-06T18:12:38.513Z,98.01
2018-10-06T18:15:07.086Z,97.95
2018-10-06T18:17:35.989Z,98.11
2018-10-06T18:20:04.875Z,98.09
2018-10-06T18:22:33.334Z,97.64
2018-10-06T18:25:01.863Z,97.32
2018-10-06T18:27:30.362Z,97.61
2018-10-06T18:29:58.860Z,97.56
2018-10-06T18:32:27.394Z,97.97
2018-10-06T18:34:55.918Z,98.08
2018-10-06T18:37:24.481Z,98.57
2018-10-06T18:39:52.971Z,98.45
2018-10-06T18:42:21.500Z,98.92
2018-10-06T18:44:50.012Z,98.96
2018-10-06T18:47:18.536Z,98.67
2018-10-06T18:49:47.026Z,98.12
2018-10-06T18:52:15.565Z,97.91
2018-10-06T18:54:44.075Z,98.68
2018-10-06T18:57:12.591Z,99.27
2018-10-06T18:59:41.080Z,99.40
2018-10-06T19:02:09.607Z,99.36
2018-10-06T19:04:38.111Z,99.86
2018-10-06T19:07:06.649Z,100.00
2018-10-06T19:09:35.147Z,99.95
2018-10-06T19:12:03.786Z,99.37
2018-10-06T19:14:32.339Z,99.15
2018-10-06T19:17:00.851Z,99.46
2018-10-06T19:19:29.343Z,99.40
2018-10-06T19:21:57.929Z,99.34
2018-10-06T19:24:26.466Z,99.42
2018-10-06T19:26:55.085Z,99.75
2018-10-06T19:29:23.613Z,99.96
2018-10-06T19:31:52.133Z,100.00
2018-10-06T19:34:20.686Z,100.00
2018-10-06T19:36:49.208Z,100.00
2018-10-06T19:39:17.729Z,100.00
2018-10-06T19:41:46.263Z,100.00
2018-10-06T19:44:17.758Z,100.00
2018-10-06T19:46:46.311Z,100.00
2018-10-06T19:49:14.814Z,100.00
2018-10-06T19:51:43.368Z,100.00
2018-10-06T19:54:11.885Z,100.00
2018-10-06T19:56:40.414Z,100.00
2018-10-06T19:59:08.913Z,100.00
2018-10-06T20:01:37.436Z,100.00
2018-10-06T20:04:05.992Z,100.00
2018-10-06T20:06:34.523Z,100.00
2018-10-06T20:09:03.082Z,100.00
2018-10-06T20:11:31.622Z,100.00
2018-10-06T20:14:00.120Z,100.00
2018-10-06T20:16:28.655Z,100.00
2018-10-06T20:18:57.230Z,100.00
2018-10-06T20:21:25.743Z,100.00
2018-10-06T20:23:54.261Z,100.00
2018-10-06T20:26:22.782Z,100.00
2018-10-06T20:28:51.306Z,100.00
2018-10-06T20:31:20.059Z,100.00
2018-10-06T20:33:48.592Z,100.00
2018-10-06T20:36:17.093Z,100.00
2018-10-06T20:38:45.639Z,100.00
2018-10-06T20:41:14.138Z,100.00
2018-10-06T20:43:42.666Z,100.00
2018-10-06T20:46:11.238Z,100.00
2018-10-06T20:48:39.761Z,100.00
2018-10-06T20:51:08.292Z,100.00
2018-10-06T20:53:36.819Z,100.00
2018-10-06T20:56:05.347Z,100.00
2018-10-06T20:58:33.882Z,100.00
2018-10-06T21:01:02.391Z,100.00
2018-10-06T21:03:30.930Z,100.00
2018-10-06T21:05:59.445Z,100.00
2018-10-06T21:08:28.002Z,100.00
2018-10-06T21:10:56.596Z,100.00
2018-10-06T21:13:25.108Z,100.00
2018-10-06T21:15:53.616Z,100.00
2018-10-06T21:18:22.177Z,100.00
2018-10-06T21:20:50.698Z,100.00
2018-10-06T21:23:19.244Z,100.00
2018-10-06T21:25:47.777Z,100.00
2018-10-06T21:28:16.323Z,100.00
2018-10-06T21:30:44.916Z,100.00
2018-10-06T21:33:13.489Z,100.00
2018-10-06T21:35:42.087Z,100.00
2018-10-06T21:38:10.622Z,100.00
2018-10-06T21:40:39.170Z,100.00
2018-10-06T21:43:07.731Z,100.00
2018-10-06T21:45:36.237Z,100.00
2018-10-06T21:48:04.781Z,100.00
2018-10-06T21:50:33.338Z,100.00
2018-10-06T21:53:01.884Z,100.00
2018-10-06T21:55:30.406Z,100.00
2018-10-06T21:57:59.021Z,100.00
2018-10-06T22:00:27.690Z,100.00
2018-10-06T22:02:56.241Z,100.00
2018-10-06T22:05:24.763Z,100.00
2018-10-06T22:07:53.489Z,100.00
2018-10-06T22:10:22.008Z,100.00
2018-10-06T22:12:50.535Z,100.00
2018-10-06T22:15:19.068Z,100.00
2018-10-06T22:17:47.655Z,100.00
2018-10-06T22:20:16.437Z,100.00
2018-10-06T22:22:44.990Z,100.00
2018-10-06T22:25:13.500Z,100.00
2018-10-06T22:27:42.051Z,100.00
2018-10-06T22:30:10.775Z,100.00
2018-10-06T22:32:39.313Z,100.00
2018-10-06T22:35:07.885Z,100.00
2018-10-06T22:37:36.405Z,100.00
2018-10-06T22:40:04.997Z,100.00
2018-10-06T22:42:33.524Z,100.00
2018-10-06T22:45:02.056Z,100.00
2018-10-06T22:47:30.604Z,100.00
2018-10-06T22:49:59.152Z,100.00
2018-10-06T22:52:27.662Z,100.00
2018-10-06T22:54:56.199Z,100.00
2018-10-06T22:57:24.714Z,100.00
2018-10-06T22:59:53.259Z,100.00
2018-10-06T23:02:21.764Z,100.00
2018-10-06T23:04:50.293Z,100.00
2018-10-06T23:07:18.793Z,100.00
2018-10-06T23:09:47.336Z,100.00
2018-10-06T23:12:15.837Z,100.00
2018-10-06T23:14:44.370Z,100.00
2018-10-06T23:17:12.889Z,100.00
2018-10-06T23:19:41.586Z,100.00
2018-10-06T23:22:10.097Z,100.00
2018-10-06T23:24:38.635Z,100.00
2018-10-06T23:27:07.153Z,100.00
2018-10-06T23:29:35.689Z,100.00
2018-10-06T23:32:04.197Z,100.00
2018-10-06T23:34:32.860Z,100.00
2018-10-06T23:37:01.385Z,100.00
2018-10-06T23:39:29.922Z,100.00
2018-10-06T23:41:58.456Z,100.00
2018-10-06T23:44:27.000Z,100.00
2018-10-06T23:46:55.510Z,100.00
2018-10-06T23:49:24.056Z,100.00
2018-10-06T23:51:52.569Z,100.00
2018-10-06T23:54:21.106Z,100.00
2018-10-06T23:56:49.618Z,100.00
2018-10-06T23:59:18.156Z,100.00
